sensor_id;sensor_type;location;lat;lon;timestamp;temperature;humidity
4787;DHT22;62338;48.832;9.422;2023-03-14T00:00:00;7.90;99.90
4787;DHT22;62338;48.832;9.422;2023-03-14T00:02:02;7.90;99.90
4787;DHT22;62338;48.832;9.422;2023-03-14T00:04:04;7.90;99.90
4787;DHT22;62338;48.832;9.422;2023-03-14T00:06:07;7.90;99.90
4787;DHT22;62338;48.832;9.422;2023-03-14T00:08:09;7.90;99.90
4787;DHT22;62338;48.832;9.422;2023-03-14T00:10:13;7.90;99.90
4787;DHT22;62338;48.832;9.422;2023-03-14T00:12:15;7.90;99.90
4787;DHT22;62338;48.832;9.422;2023-03-14T00:14:17;7.90;99.90
4787;DHT22;62338;48.832;9.422;2023-03-14T00:16:19;7.90;99.90
4787;DHT22;62338;48.832;9.422;2023-03-14T00:18:21;7.90;99.90
4787;DHT22;62338;48.832;9.422;2023-03-14T00:20:24;7.90;99.90
4787;DHT22;62338;48.832;9.422;2023-03-14T00:22:26;7.90;99.90
4787;DHT22;62338;48.832;9.422;2023-03-14T00:24:29;7.90;99.90
4787;DHT22;62338;48.832;9.422;2023-03-14T00:26:31;7.90;99.90
4787;DHT22;62338;48.832;9.422;2023-03-14T00:28:33;7.90;99.90
4787;DHT22;62338;48.832;9.422;2023-03-14T00:30:37;7.90;99.90
4787;DHT22;62338;48.832;9.422;2023-03-14T00:32:39;8.00;99.90
4787;DHT22;62338;48.832;9.422;2023-03-14T00:34:41;8.00;99.90
4787;DHT22;62338;48.832;9.422;2023-03-14T00:36:44;8.00;99.90
4787;DHT22;62338;48.832;9.422;2023-03-14T00:38:48;8.00;99.90
4787;DHT22;62338;48.832;9.422;2023-03-14T00:40:52;8.00;99.90
4787;DHT22;62338;48.832;9.422;2023-03-14T00:42:53;8.00;99.90
4787;DHT22;62338;48.832;9.422;2023-03-14T00:44:55;8.00;99.90
4787;DHT22;62338;48.832;9.422;2023-03-14T00:46:57;8.00;99.90
4787;DHT22;62338;48.832;9.422;2023-03-14T00:48:59;8.00;99.90
4787;DHT22;62338;48.832;9.422;2023-03-14T00:51:02;8.10;99.90
4787;DHT22;62338;48.832;9.422;2023-03-14T00:53:04;8.00;99.90
4787;DHT22;62338;48.832;9.422;2023-03-14T00:55:07;8.00;99.90
4787;DHT22;62338;48.832;9.422;2023-03-14T00:57:08;8.00;99.90
4787;DHT22;62338;48.832;9.422;2023-03-14T00:59:10;8.00;99.90
4787;DHT22;62338;48.832;9.422;2023-03-14T01:01:15;8.00;99.90
4787;DHT22;62338;48.832;9.422;2023-03-14T01:03:17;8.00;99.90
4787;DHT22;62338;48.832;9.422;2023-03-14T01:05:19;8.00;99.90
4787;DHT22;62338;48.832;9.422;2023-03-14T01:07:21;8.00;99.90
4787;DHT22;62338;48.832;9.422;2023-03-14T01:09:22;8.00;99.90
4787;DHT22;62338;48.832;9.422;2023-03-14T01:11:26;8.10;99.90
4787;DHT22;62338;48.832;9.422;2023-03-14T01:13:28;8.10;99.90
4787;DHT22;62338;48.832;9.422;2023-03-14T01:15:32;8.00;99.90
4787;DHT22;62338;48.832;9.422;2023-03-14T01:17:34;8.10;99.90
4787;DHT22;62338;48.832;9.422;2023-03-14T01:19:36;8.10;99.90
4787;DHT22;62338;48.832;9.422;2023-03-14T01:21:38;8.10;99.90
4787;DHT22;62338;48.832;9.422;2023-03-14T01:23:41;8.00;99.90
4787;DHT22;62338;48.832;9.422;2023-03-14T01:25:43;8.00;99.90
4787;DHT22;62338;48.832;9.422;2023-03-14T01:27:45;8.10;99.90
4787;DHT22;62338;48.832;9.422;2023-03-14T01:29:46;8.10;99.90
4787;DHT22;62338;48.832;9.422;2023-03-14T01:31:48;8.10;99.90
4787;DHT22;62338;48.832;9.422;2023-03-14T01:33:50;8.10;99.90
4787;DHT22;62338;48.832;9.422;2023-03-14T01:35:52;8.10;99.90
4787;DHT22;62338;48.832;9.422;2023-03-14T01:37:54;8.10;99.90
4787;DHT22;62338;48.832;9.422;2023-03-14T01:39:56;8.00;99.90
4787;DHT22;62338;48.832;9.422;2023-03-14T01:41:57;8.00;99.90
4787;DHT22;62338;48.832;9.422;2023-03-14T01:44:00;8.00;99.90
4787;DHT22;62338;48.832;9.422;2023-03-14T01:48:07;8.00;99.90
4787;DHT22;62338;48.832;9.422;2023-03-14T01:50:11;7.90;99.90
4787;DHT22;62338;48.832;9.422;2023-03-14T01:52:22;7.90;99.90
4787;DHT22;62338;48.832;9.422;2023-03-14T01:54:40;7.90;99.90
4787;DHT22;62338;48.832;9.422;2023-03-14T01:56:46;7.80;99.90
4787;DHT22;62338;48.832;9.422;2023-03-14T01:58:51;7.80;99.90
4787;DHT22;62338;48.832;9.422;2023-03-14T02:00:55;7.80;99.90
4787;DHT22;62338;48.832;9.422;2023-03-14T02:03:02;7.70;99.90
4787;DHT22;62338;48.832;9.422;2023-03-14T02:05:06;7.70;99.90
4787;DHT22;62338;48.832;9.422;2023-03-14T02:07:13;7.80;99.90
4787;DHT22;62338;48.832;9.422;2023-03-14T02:09:16;7.80;99.90
4787;DHT22;62338;48.832;9.422;2023-03-14T02:11:19;7.80;99.90
4787;DHT22;62338;48.832;9.422;2023-03-14T02:13:21;7.80;99.90
4787;DHT22;62338;48.832;9.422;2023-03-14T02:15:23;7.80;99.90
4787;DHT22;62338;48.832;9.422;2023-03-14T02:17:25;7.90;99.90
4787;DHT22;62338;48.832;9.422;2023-03-14T02:20:03;7.80;99.90
4787;DHT22;62338;48.832;9.422;2023-03-14T02:22:13;7.80;99.90
4787;DHT22;62338;48.832;9.422;2023-03-14T02:25:02;7.80;99.90
4787;DHT22;62338;48.832;9.422;2023-03-14T02:26:40;7.80;99.90
4787;DHT22;62338;48.832;9.422;2023-03-14T02:28:44;7.80;99.90
4787;DHT22;62338;48.832;9.422;2023-03-14T02:30:46;7.80;99.90
4787;DHT22;62338;48.832;9.422;2023-03-14T02:33:10;7.80;99.90
4787;DHT22;62338;48.832;9.422;2023-03-14T02:35:20;7.70;99.90
4787;DHT22;62338;48.832;9.422;2023-03-14T02:37:28;7.70;99.90
4787;DHT22;62338;48.832;9.422;2023-03-14T02:39:38;7.70;99.90
4787;DHT22;62338;48.832;9.422;2023-03-14T02:41:40;7.60;99.90
4787;DHT22;62338;48.832;9.422;2023-03-14T02:43:44;7.60;99.90
4787;DHT22;62338;48.832;9.422;2023-03-14T02:45:47;7.60;99.90
4787;DHT22;62338;48.832;9.422;2023-03-14T02:47:56;7.60;99.90
4787;DHT22;62338;48.832;9.422;2023-03-14T02:50:05;7.70;99.90
4787;DHT22;62338;48.832;9.422;2023-03-14T02:52:07;7.70;99.90
4787;DHT22;62338;48.832;9.422;2023-03-14T02:54:09;7.60;99.90
4787;DHT22;62338;48.832;9.422;2023-03-14T02:56:11;7.70;99.90
4787;DHT22;62338;48.832;9.422;2023-03-14T02:58:13;7.80;99.90
4787;DHT22;62338;48.832;9.422;2023-03-14T03:00:15;7.80;99.90
4787;DHT22;62338;48.832;9.422;2023-03-14T03:02:17;7.80;99.90
4787;DHT22;62338;48.832;9.422;2023-03-14T03:04:19;7.80;99.90
4787;DHT22;62338;48.832;9.422;2023-03-14T03:06:21;7.80;99.90
4787;DHT22;62338;48.832;9.422;2023-03-14T03:08:24;7.90;99.90
4787;DHT22;62338;48.832;9.422;2023-03-14T03:10:28;7.90;99.90
4787;DHT22;62338;48.832;9.422;2023-03-14T03:12:30;7.90;99.90
4787;DHT22;62338;48.832;9.422;2023-03-14T03:14:32;7.90;99.90
4787;DHT22;62338;48.832;9.422;2023-03-14T03:16:33;7.90;99.90
4787;DHT22;62338;48.832;9.422;2023-03-14T03:18:35;7.80;99.90
4787;DHT22;62338;48.832;9.422;2023-03-14T03:20:37;7.80;99.90
4787;DHT22;62338;48.832;9.422;2023-03-14T03:22:39;7.80;99.90
4787;DHT22;62338;48.832;9.422;2023-03-14T03:24:41;7.80;99.90
4787;DHT22;62338;48.832;9.422;2023-03-14T03:26:43;7.80;99.90
4787;DHT22;62338;48.832;9.422;2023-03-14T03:28:44;7.80;99.90
4787;DHT22;62338;48.832;9.422;2023-03-14T03:30:46;7.80;99.90
4787;DHT22;62338;48.832;9.422;2023-03-14T03:32:48;7.80;99.90
4787;DHT22;62338;48.832;9.422;2023-03-14T03:34:51;7.70;99.90
4787;DHT22;62338;48.832;9.422;2023-03-14T03:36:56;7.70;99.90
4787;DHT22;62338;48.832;9.422;2023-03-14T03:38:58;7.70;99.90
4787;DHT22;62338;48.832;9.422;2023-03-14T03:41:03;7.70;99.90
4787;DHT22;62338;48.832;9.422;2023-03-14T03:43:05;7.70;99.90
4787;DHT22;62338;48.832;9.422;2023-03-14T03:45:07;7.70;99.90
4787;DHT22;62338;48.832;9.422;2023-03-14T03:47:09;7.70;99.90
4787;DHT22;62338;48.832;9.422;2023-03-14T03:49:10;7.70;99.90
4787;DHT22;62338;48.832;9.422;2023-03-14T03:51:14;7.60;99.90
4787;DHT22;62338;48.832;9.422;2023-03-14T03:53:16;7.60;99.90
4787;DHT22;62338;48.832;9.422;2023-03-14T03:55:33;7.60;99.90
4787;DHT22;62338;48.832;9.422;2023-03-14T03:57:35;7.60;99.90
4787;DHT22;62338;48.832;9.422;2023-03-14T03:59:37;7.60;99.90
4787;DHT22;62338;48.832;9.422;2023-03-14T04:01:41;7.60;99.90
4787;DHT22;62338;48.832;9.422;2023-03-14T04:03:43;7.60;99.90
4787;DHT22;62338;48.832;9.422;2023-03-14T04:05:45;7.60;99.90
4787;DHT22;62338;48.832;9.422;2023-03-14T04:07:47;7.60;99.90
4787;DHT22;62338;48.832;9.422;2023-03-14T04:09:49;7.60;99.90
4787;DHT22;62338;48.832;9.422;2023-03-14T04:11:51;7.50;99.90
4787;DHT22;62338;48.832;9.422;2023-03-14T04:13:52;7.50;99.90
4787;DHT22;62338;48.832;9.422;2023-03-14T04:15:55;7.60;99.90
4787;DHT22;62338;48.832;9.422;2023-03-14T04:17:58;7.50;99.90
4787;DHT22;62338;48.832;9.422;2023-03-14T04:20:00;7.50;99.90
4787;DHT22;62338;48.832;9.422;2023-03-14T04:22:02;7.40;99.90
4787;DHT22;62338;48.832;9.422;2023-03-14T04:24:04;7.40;99.90
4787;DHT22;62338;48.832;9.422;2023-03-14T04:26:06;7.50;99.90
4787;DHT22;62338;48.832;9.422;2023-03-14T04:28:07;7.50;99.90
4787;DHT22;62338;48.832;9.422;2023-03-14T04:30:10;7.40;99.90
4787;DHT22;62338;48.832;9.422;2023-03-14T04:32:11;7.50;99.90
4787;DHT22;62338;48.832;9.422;2023-03-14T04:34:13;7.50;99.90
4787;DHT22;62338;48.832;9.422;2023-03-14T04:36:15;7.40;99.90
4787;DHT22;62338;48.832;9.422;2023-03-14T04:38:16;7.40;99.90
4787;DHT22;62338;48.832;9.422;2023-03-14T04:40:18;7.40;99.90
4787;DHT22;62338;48.832;9.422;2023-03-14T04:42:20;7.40;99.90
4787;DHT22;62338;48.832;9.422;2023-03-14T04:44:22;7.40;99.90
4787;DHT22;62338;48.832;9.422;2023-03-14T04:46:24;7.40;99.90
4787;DHT22;62338;48.832;9.422;2023-03-14T04:48:26;7.40;99.90
4787;DHT22;62338;48.832;9.422;2023-03-14T04:50:28;7.40;99.90
4787;DHT22;62338;48.832;9.422;2023-03-14T04:52:30;7.40;99.90
4787;DHT22;62338;48.832;9.422;2023-03-14T04:54:32;7.50;99.90
4787;DHT22;62338;48.832;9.422;2023-03-14T04:56:33;7.40;99.90
4787;DHT22;62338;48.832;9.422;2023-03-14T04:58:35;7.40;99.90
4787;DHT22;62338;48.832;9.422;2023-03-14T05:00:37;7.30;99.90
4787;DHT22;62338;48.832;9.422;2023-03-14T05:02:40;7.30;99.90
4787;DHT22;62338;48.832;9.422;2023-03-14T05:04:42;7.30;99.90
4787;DHT22;62338;48.832;9.422;2023-03-14T05:06:43;7.30;99.90
4787;DHT22;62338;48.832;9.422;2023-03-14T05:08:45;7.40;99.90
4787;DHT22;62338;48.832;9.422;2023-03-14T05:10:54;7.40;99.90
4787;DHT22;62338;48.832;9.422;2023-03-14T05:12:56;7.40;99.90
4787;DHT22;62338;48.832;9.422;2023-03-14T05:14:58;7.40;99.90
4787;DHT22;62338;48.832;9.422;2023-03-14T05:17:00;7.40;99.90
4787;DHT22;62338;48.832;9.422;2023-03-14T05:19:01;7.40;99.90
4787;DHT22;62338;48.832;9.422;2023-03-14T05:21:04;7.30;99.90
4787;DHT22;62338;48.832;9.422;2023-03-14T05:23:05;7.30;99.90
4787;DHT22;62338;48.832;9.422;2023-03-14T05:25:08;7.30;99.90
4787;DHT22;62338;48.832;9.422;2023-03-14T05:27:10;7.30;99.90
4787;DHT22;62338;48.832;9.422;2023-03-14T05:29:12;7.30;99.90
4787;DHT22;62338;48.832;9.422;2023-03-14T05:31:16;7.30;99.90
4787;DHT22;62338;48.832;9.422;2023-03-14T05:33:17;7.30;99.90
4787;DHT22;62338;48.832;9.422;2023-03-14T05:35:19;7.30;99.90
4787;DHT22;62338;48.832;9.422;2023-03-14T05:37:21;7.30;99.90
4787;DHT22;62338;48.832;9.422;2023-03-14T05:39:23;7.30;99.90
4787;DHT22;62338;48.832;9.422;2023-03-14T05:41:25;7.30;99.90
4787;DHT22;62338;48.832;9.422;2023-03-14T05:43:27;7.30;99.90
4787;DHT22;62338;48.832;9.422;2023-03-14T05:45:29;7.20;99.90
4787;DHT22;62338;48.832;9.422;2023-03-14T05:47:31;7.20;99.90
4787;DHT22;62338;48.832;9.422;2023-03-14T05:49:32;7.30;88.90
4787;DHT22;62338;48.832;9.422;2023-03-14T05:51:34;7.30;98.40
4787;DHT22;62338;48.832;9.422;2023-03-14T05:53:36;7.30;99.90
4787;DHT22;62338;48.832;9.422;2023-03-14T05:55:39;7.40;76.90
4787;DHT22;62338;48.832;9.422;2023-03-14T05:57:41;7.40;92.90
4787;DHT22;62338;48.832;9.422;2023-03-14T05:59:43;7.40;79.40
4787;DHT22;62338;48.832;9.422;2023-03-14T06:01:44;7.40;56.80
4787;DHT22;62338;48.832;9.422;2023-03-14T06:03:46;7.50;45.70
4787;DHT22;62338;48.832;9.422;2023-03-14T06:05:51;7.50;53.30
4787;DHT22;62338;48.832;9.422;2023-03-14T06:07:53;7.50;41.30
4787;DHT22;62338;48.832;9.422;2023-03-14T06:09:55;7.60;66.40
4787;DHT22;62338;48.832;9.422;2023-03-14T06:11:56;7.60;52.20
4787;DHT22;62338;48.832;9.422;2023-03-14T06:13:58;7.60;27.00
4787;DHT22;62338;48.832;9.422;2023-03-14T06:16:00;7.60;38.40
4787;DHT22;62338;48.832;9.422;2023-03-14T06:18:01;7.60;25.00
4787;DHT22;62338;48.832;9.422;2023-03-14T06:20:04;7.60;12.50
4787;DHT22;62338;48.832;9.422;2023-03-14T06:22:06;7.60;29.80
4787;DHT22;62338;48.832;9.422;2023-03-14T06:24:08;7.70;13.70
4787;DHT22;62338;48.832;9.422;2023-03-14T06:26:09;7.70;9.10
4787;DHT22;62338;48.832;9.422;2023-03-14T06:28:13;7.60;5.70
4787;DHT22;62338;48.832;9.422;2023-03-14T06:30:15;7.60;9.60
4787;DHT22;62338;48.832;9.422;2023-03-14T06:32:17;7.60;33.50
4787;DHT22;62338;48.832;9.422;2023-03-14T06:34:20;7.50;31.10
4787;DHT22;62338;48.832;9.422;2023-03-14T06:36:21;7.50;24.90
4787;DHT22;62338;48.832;9.422;2023-03-14T06:38:23;7.50;29.60
4787;DHT22;62338;48.832;9.422;2023-03-14T06:40:25;7.40;37.40
4787;DHT22;62338;48.832;9.422;2023-03-14T06:42:27;7.50;30.30
4787;DHT22;62338;48.832;9.422;2023-03-14T06:44:29;7.50;13.00
4787;DHT22;62338;48.832;9.422;2023-03-14T06:46:31;7.60;24.50
4787;DHT22;62338;48.832;9.422;2023-03-14T06:48:32;7.60;10.40
4787;DHT22;62338;48.832;9.422;2023-03-14T06:50:36;7.60;26.00
4787;DHT22;62338;48.832;9.422;2023-03-14T06:52:37;7.70;1.20
4787;DHT22;62338;48.832;9.422;2023-03-14T06:54:42;7.80;1.00
4787;DHT22;62338;48.832;9.422;2023-03-14T06:56:44;7.90;1.00
4787;DHT22;62338;48.832;9.422;2023-03-14T06:58:46;8.00;1.00
4787;DHT22;62338;48.832;9.422;2023-03-14T07:00:52;8.60;1.00
4787;DHT22;62338;48.832;9.422;2023-03-14T07:02:54;9.10;1.00
4787;DHT22;62338;48.832;9.422;2023-03-14T07:04:56;9.50;1.00
4787;DHT22;62338;48.832;9.422;2023-03-14T07:06:58;9.70;1.00
4787;DHT22;62338;48.832;9.422;2023-03-14T07:08:59;9.60;1.00
4787;DHT22;62338;48.832;9.422;2023-03-14T07:11:04;9.60;1.00
4787;DHT22;62338;48.832;9.422;2023-03-14T07:13:06;9.40;1.00
4787;DHT22;62338;48.832;9.422;2023-03-14T07:15:08;9.20;1.00
4787;DHT22;62338;48.832;9.422;2023-03-14T07:17:19;9.00;1.00
4787;DHT22;62338;48.832;9.422;2023-03-14T07:19:21;8.90;1.00
4787;DHT22;62338;48.832;9.422;2023-03-14T07:21:23;8.70;1.00
4787;DHT22;62338;48.832;9.422;2023-03-14T07:23:24;8.80;1.00
4787;DHT22;62338;48.832;9.422;2023-03-14T07:25:27;9.70;1.00
4787;DHT22;62338;48.832;9.422;2023-03-14T07:27:29;10.70;10.00
4787;DHT22;62338;48.832;9.422;2023-03-14T07:29:31;11.40;1.00
4787;DHT22;62338;48.832;9.422;2023-03-14T07:31:32;12.30;1.00
4787;DHT22;62338;48.832;9.422;2023-03-14T07:33:34;12.90;1.00
4787;DHT22;62338;48.832;9.422;2023-03-14T07:35:37;13.30;1.00
4787;DHT22;62338;48.832;9.422;2023-03-14T07:37:38;13.40;99.90
4787;DHT22;62338;48.832;9.422;2023-03-14T07:39:40;13.80;96.60
4787;DHT22;62338;48.832;9.422;2023-03-14T07:41:42;14.10;1.00
4787;DHT22;62338;48.832;9.422;2023-03-14T07:43:44;14.20;1.00
4787;DHT22;62338;48.832;9.422;2023-03-14T07:45:46;14.20;1.00
4787;DHT22;62338;48.832;9.422;2023-03-14T07:47:51;13.70;99.90
4787;DHT22;62338;48.832;9.422;2023-03-14T07:49:53;13.10;1.00
4787;DHT22;62338;48.832;9.422;2023-03-14T07:51:55;12.90;18.20
4787;DHT22;62338;48.832;9.422;2023-03-14T07:53:56;13.30;1.00
4787;DHT22;62338;48.832;9.422;2023-03-14T07:55:58;13.60;99.90
4787;DHT22;62338;48.832;9.422;2023-03-14T07:58:01;13.80;73.50
4787;DHT22;62338;48.832;9.422;2023-03-14T08:00:03;13.70;99.90
4787;DHT22;62338;48.832;9.422;2023-03-14T08:02:10;14.10;99.90
4787;DHT22;62338;48.832;9.422;2023-03-14T08:04:13;14.40;99.90
4787;DHT22;62338;48.832;9.422;2023-03-14T08:06:15;14.40;99.90
4787;DHT22;62338;48.832;9.422;2023-03-14T08:08:18;14.40;99.90
4787;DHT22;62338;48.832;9.422;2023-03-14T08:10:20;14.20;99.90
4787;DHT22;62338;48.832;9.422;2023-03-14T08:12:24;14.20;1.00
4787;DHT22;62338;48.832;9.422;2023-03-14T08:14:26;14.50;99.90
4787;DHT22;62338;48.832;9.422;2023-03-14T08:16:28;14.50;99.90
4787;DHT22;62338;48.832;9.422;2023-03-14T08:18:30;14.60;1.00
4787;DHT22;62338;48.832;9.422;2023-03-14T08:20:32;14.50;99.90
4787;DHT22;62338;48.832;9.422;2023-03-14T08:22:34;14.70;99.90
4787;DHT22;62338;48.832;9.422;2023-03-14T08:24:35;15.10;1.00
4787;DHT22;62338;48.832;9.422;2023-03-14T08:26:37;15.40;99.90
4787;DHT22;62338;48.832;9.422;2023-03-14T08:28:39;15.40;99.90
4787;DHT22;62338;48.832;9.422;2023-03-14T08:30:41;15.60;99.90
4787;DHT22;62338;48.832;9.422;2023-03-14T08:32:48;15.20;99.90
4787;DHT22;62338;48.832;9.422;2023-03-14T08:34:50;14.30;49.80
4787;DHT22;62338;48.832;9.422;2023-03-14T08:36:52;13.90;49.10
4787;DHT22;62338;48.832;9.422;2023-03-14T08:38:54;14.00;1.00
4787;DHT22;62338;48.832;9.422;2023-03-14T08:40:57;14.00;99.90
4787;DHT22;62338;48.832;9.422;2023-03-14T08:42:59;14.10;99.90
4787;DHT22;62338;48.832;9.422;2023-03-14T08:45:01;14.60;1.00
4787;DHT22;62338;48.832;9.422;2023-03-14T08:47:02;15.00;1.00
4787;DHT22;62338;48.832;9.422;2023-03-14T08:49:05;15.70;99.90
4787;DHT22;62338;48.832;9.422;2023-03-14T08:51:12;16.80;1.00
4787;DHT22;62338;48.832;9.422;2023-03-14T08:53:14;16.40;1.00
4787;DHT22;62338;48.832;9.422;2023-03-14T08:55:16;14.90;99.90
4787;DHT22;62338;48.832;9.422;2023-03-14T08:57:17;13.70;24.80
4787;DHT22;62338;48.832;9.422;2023-03-14T08:59:19;12.90;88.50
4787;DHT22;62338;48.832;9.422;2023-03-14T09:01:21;12.40;1.00
4787;DHT22;62338;48.832;9.422;2023-03-14T09:03:25;12.20;1.00
4787;DHT22;62338;48.832;9.422;2023-03-14T09:05:27;12.20;1.00
4787;DHT22;62338;48.832;9.422;2023-03-14T09:07:29;12.10;99.90
4787;DHT22;62338;48.832;9.422;2023-03-14T09:09:31;12.00;1.00
4787;DHT22;62338;48.832;9.422;2023-03-14T09:11:33;11.60;1.00
4787;DHT22;62338;48.832;9.422;2023-03-14T09:13:35;11.40;1.00
4787;DHT22;62338;48.832;9.422;2023-03-14T09:15:37;11.30;1.00
4787;DHT22;62338;48.832;9.422;2023-03-14T09:17:39;11.20;99.90
4787;DHT22;62338;48.832;9.422;2023-03-14T09:19:41;11.20;99.90
4787;DHT22;62338;48.832;9.422;2023-03-14T09:21:42;11.00;99.90
4787;DHT22;62338;48.832;9.422;2023-03-14T09:23:44;10.90;99.90
4787;DHT22;62338;48.832;9.422;2023-03-14T09:25:47;10.80;1.00
4787;DHT22;62338;48.832;9.422;2023-03-14T09:27:49;10.80;99.90
4787;DHT22;62338;48.832;9.422;2023-03-14T09:29:50;10.90;99.90
4787;DHT22;62338;48.832;9.422;2023-03-14T09:31:52;10.90;1.00
4787;DHT22;62338;48.832;9.422;2023-03-14T09:33:54;10.70;99.90
4787;DHT22;62338;48.832;9.422;2023-03-14T09:35:58;10.60;1.00
4787;DHT22;62338;48.832;9.422;2023-03-14T09:38:01;10.50;1.00
4787;DHT22;62338;48.832;9.422;2023-03-14T09:40:04;10.50;1.00
4787;DHT22;62338;48.832;9.422;2023-03-14T09:42:16;10.60;1.00
4787;DHT22;62338;48.832;9.422;2023-03-14T09:44:28;10.80;1.00
4787;DHT22;62338;48.832;9.422;2023-03-14T09:46:33;10.80;90.80
4787;DHT22;62338;48.832;9.422;2023-03-14T09:48:36;11.00;1.00
4787;DHT22;62338;48.832;9.422;2023-03-14T09:50:42;11.10;1.00
4787;DHT22;62338;48.832;9.422;2023-03-14T09:52:48;11.20;1.00
4787;DHT22;62338;48.832;9.422;2023-03-14T09:54:59;11.30;99.90
4787;DHT22;62338;48.832;9.422;2023-03-14T09:57:05;11.30;1.00
4787;DHT22;62338;48.832;9.422;2023-03-14T09:59:12;11.40;99.90
4787;DHT22;62338;48.832;9.422;2023-03-14T10:01:16;11.50;1.00
4787;DHT22;62338;48.832;9.422;2023-03-14T10:03:32;11.60;99.90
4787;DHT22;62338;48.832;9.422;2023-03-14T10:05:34;11.70;1.00
4787;DHT22;62338;48.832;9.422;2023-03-14T10:07:35;11.70;1.00
4787;DHT22;62338;48.832;9.422;2023-03-14T10:09:37;11.90;1.00
4787;DHT22;62338;48.832;9.422;2023-03-14T10:11:39;11.80;99.90
4787;DHT22;62338;48.832;9.422;2023-03-14T10:14:09;11.60;99.90
4787;DHT22;62338;48.832;9.422;2023-03-14T10:16:14;11.70;99.90
4787;DHT22;62338;48.832;9.422;2023-03-14T10:18:16;11.80;1.00
4787;DHT22;62338;48.832;9.422;2023-03-14T10:20:34;11.90;99.90
4787;DHT22;62338;48.832;9.422;2023-03-14T10:22:36;11.60;99.90
4787;DHT22;62338;48.832;9.422;2023-03-14T10:24:40;11.60;99.90
4787;DHT22;62338;48.832;9.422;2023-03-14T10:26:52;11.70;99.90
4787;DHT22;62338;48.832;9.422;2023-03-14T10:29:10;11.80;99.90
4787;DHT22;62338;48.832;9.422;2023-03-14T10:31:13;11.90;99.90
4787;DHT22;62338;48.832;9.422;2023-03-14T10:35:22;13.30;1.00
4787;DHT22;62338;48.832;9.422;2023-03-14T10:37:26;13.90;1.00
4787;DHT22;62338;48.832;9.422;2023-03-14T10:39:35;13.80;1.00
4787;DHT22;62338;48.832;9.422;2023-03-14T10:41:41;13.40;1.00
4787;DHT22;62338;48.832;9.422;2023-03-14T10:43:50;13.20;99.90
4787;DHT22;62338;48.832;9.422;2023-03-14T10:46:29;12.90;99.90
4787;DHT22;62338;48.832;9.422;2023-03-14T10:48:35;12.30;1.00
4787;DHT22;62338;48.832;9.422;2023-03-14T10:50:38;11.80;99.90
4787;DHT22;62338;48.832;9.422;2023-03-14T10:52:49;11.50;1.00
4787;DHT22;62338;48.832;9.422;2023-03-14T10:55:10;11.10;1.00
4787;DHT22;62338;48.832;9.422;2023-03-14T10:57:12;11.00;99.90
4787;DHT22;62338;48.832;9.422;2023-03-14T10:59:15;10.90;1.00
4787;DHT22;62338;48.832;9.422;2023-03-14T11:03:42;10.90;99.90
4787;DHT22;62338;48.832;9.422;2023-03-14T11:05:53;10.80;99.90
4787;DHT22;62338;48.832;9.422;2023-03-14T11:08:04;10.70;1.00
4787;DHT22;62338;48.832;9.422;2023-03-14T11:10:26;10.70;99.90
4787;DHT22;62338;48.832;9.422;2023-03-14T11:14:55;10.80;1.00
4787;DHT22;62338;48.832;9.422;2023-03-14T11:31:46;10.50;1.00
4787;DHT22;62338;48.832;9.422;2023-03-14T11:36:05;10.40;99.90
4787;DHT22;62338;48.832;9.422;2023-03-14T11:38:18;10.30;99.90
4787;DHT22;62338;48.832;9.422;2023-03-14T11:40:23;10.20;99.90
4787;DHT22;62338;48.832;9.422;2023-03-14T11:42:28;9.90;1.00
4787;DHT22;62338;48.832;9.422;2023-03-14T11:44:37;9.60;1.00
4787;DHT22;62338;48.832;9.422;2023-03-14T11:46:42;9.30;1.00
4787;DHT22;62338;48.832;9.422;2023-03-14T11:48:56;9.20;1.00
4787;DHT22;62338;48.832;9.422;2023-03-14T11:51:02;9.10;1.00
4787;DHT22;62338;48.832;9.422;2023-03-14T11:53:11;9.10;1.00
4787;DHT22;62338;48.832;9.422;2023-03-14T11:57:21;9.10;1.00
4787;DHT22;62338;48.832;9.422;2023-03-14T12:02:25;9.10;1.00
4787;DHT22;62338;48.832;9.422;2023-03-14T12:04:35;9.10;1.00
4787;DHT22;62338;48.832;9.422;2023-03-14T12:06:49;9.20;1.00
4787;DHT22;62338;48.832;9.422;2023-03-14T12:08:57;9.20;1.00
4787;DHT22;62338;48.832;9.422;2023-03-14T12:11:03;9.20;1.00
4787;DHT22;62338;48.832;9.422;2023-03-14T12:13:09;9.20;1.00
4787;DHT22;62338;48.832;9.422;2023-03-14T12:15:21;9.10;1.00
4787;DHT22;62338;48.832;9.422;2023-03-14T12:17:27;9.00;1.00
4787;DHT22;62338;48.832;9.422;2023-03-14T12:19:38;9.00;1.00
4787;DHT22;62338;48.832;9.422;2023-03-14T12:21:57;8.90;1.00
4787;DHT22;62338;48.832;9.422;2023-03-14T12:24:00;8.90;1.00
4787;DHT22;62338;48.832;9.422;2023-03-14T12:28:20;9.00;1.00
4787;DHT22;62338;48.832;9.422;2023-03-14T12:30:37;9.10;1.00
4787;DHT22;62338;48.832;9.422;2023-03-14T12:32:39;9.10;1.00
4787;DHT22;62338;48.832;9.422;2023-03-14T12:34:44;9.00;1.00
4787;DHT22;62338;48.832;9.422;2023-03-14T12:36:56;8.90;1.00
4787;DHT22;62338;48.832;9.422;2023-03-14T12:39:10;8.90;1.00
4787;DHT22;62338;48.832;9.422;2023-03-14T12:41:23;8.90;1.00
4787;DHT22;62338;48.832;9.422;2023-03-14T12:43:32;8.90;1.00
4787;DHT22;62338;48.832;9.422;2023-03-14T12:45:36;9.10;1.00
4787;DHT22;62338;48.832;9.422;2023-03-14T12:49:40;9.40;1.00
4787;DHT22;62338;48.832;9.422;2023-03-14T12:51:42;9.50;1.00
4787;DHT22;62338;48.832;9.422;2023-03-14T12:58:36;9.40;99.90
4787;DHT22;62338;48.832;9.422;2023-03-14T13:00:40;9.10;99.90
4787;DHT22;62338;48.832;9.422;2023-03-14T13:02:44;9.10;1.00
4787;DHT22;62338;48.832;9.422;2023-03-14T13:05:01;9.00;98.30
4787;DHT22;62338;48.832;9.422;2023-03-14T13:07:09;9.60;1.00
4787;DHT22;62338;48.832;9.422;2023-03-14T13:11:34;10.40;99.90
4787;DHT22;62338;48.832;9.422;2023-03-14T13:13:42;10.30;99.90
4787;DHT22;62338;48.832;9.422;2023-03-14T13:15:48;10.70;1.00
4787;DHT22;62338;48.832;9.422;2023-03-14T13:17:56;10.90;99.90
4787;DHT22;62338;48.832;9.422;2023-03-14T13:20:13;10.70;1.00
4787;DHT22;62338;48.832;9.422;2023-03-14T13:22:28;10.70;1.00
4787;DHT22;62338;48.832;9.422;2023-03-14T13:24:34;10.70;99.90
4787;DHT22;62338;48.832;9.422;2023-03-14T13:26:40;10.30;99.90
4787;DHT22;62338;48.832;9.422;2023-03-14T13:28:42;10.10;99.90
4787;DHT22;62338;48.832;9.422;2023-03-14T13:30:45;10.00;1.00
4787;DHT22;62338;48.832;9.422;2023-03-14T13:32:49;10.00;1.00
4787;DHT22;62338;48.832;9.422;2023-03-14T13:34:51;10.00;99.90
4787;DHT22;62338;48.832;9.422;2023-03-14T13:36:53;10.00;99.90
4787;DHT22;62338;48.832;9.422;2023-03-14T13:38:57;10.20;99.90
4787;DHT22;62338;48.832;9.422;2023-03-14T13:41:00;10.20;99.90
4787;DHT22;62338;48.832;9.422;2023-03-14T13:43:10;10.40;99.90
4787;DHT22;62338;48.832;9.422;2023-03-14T13:45:14;10.60;52.00
4787;DHT22;62338;48.832;9.422;2023-03-14T13:47:18;10.80;1.00
4787;DHT22;62338;48.832;9.422;2023-03-14T13:49:24;10.70;78.80
4787;DHT22;62338;48.832;9.422;2023-03-14T13:51:27;10.50;1.00
4787;DHT22;62338;48.832;9.422;2023-03-14T13:53:51;9.70;1.00
4787;DHT22;62338;48.832;9.422;2023-03-14T13:55:54;9.40;1.00
4787;DHT22;62338;48.832;9.422;2023-03-14T13:57:56;8.90;1.00
4787;DHT22;62338;48.832;9.422;2023-03-14T14:00:02;8.70;5.90
4787;DHT22;62338;48.832;9.422;2023-03-14T14:02:14;8.80;99.90
4787;DHT22;62338;48.832;9.422;2023-03-14T14:04:21;9.10;1.00
4787;DHT22;62338;48.832;9.422;2023-03-14T14:08:31;9.20;13.30
4787;DHT22;62338;48.832;9.422;2023-03-14T14:10:36;9.10;29.30
4787;DHT22;62338;48.832;9.422;2023-03-14T14:16:51;8.10;1.00
4787;DHT22;62338;48.832;9.422;2023-03-14T14:18:55;7.90;1.00